createdAt,value
2023-12-28T00:01:00.142Z,4.28
2023-12-28T00:03:30.447Z,4.05
2023-12-28T00:05:58.353Z,4.10
2023-12-28T00:08:26.194Z,4.15
2023-12-28T00:10:54.090Z,3.92
2023-12-28T00:13:21.915Z,3.85
2023-12-28T00:15:49.812Z,4.32
2023-12-28T00:18:19.743Z,3.85
2023-12-28T00:20:51.117Z,3.75
2023-12-28T00:23:21.162Z,4.35
2023-12-28T00:25:49.004Z,3.90
2023-12-28T00:28:17.044Z,3.83
2023-12-28T00:30:45.111Z,3.90
2023-12-28T00:33:13.118Z,3.50
2023-12-28T00:35:41.088Z,3.80
2023-12-28T00:38:10.979Z,3.67
2023-12-28T00:40:38.823Z,3.35
2023-12-28T00:43:06.881Z,4.00
2023-12-28T00:45:34.890Z,3.60
2023-12-28T00:48:03.076Z,3.45
2023-12-28T00:50:33.012Z,3.42
2023-12-28T00:53:01.031Z,3.40
2023-12-28T00:55:30.179Z,4.10
2023-12-28T00:57:58.197Z,3.42
2023-12-28T01:00:26.297Z,3.30
2023-12-28T01:02:54.686Z,3.78
2023-12-28T01:05:22.666Z,3.33
2023-12-28T01:07:50.684Z,3.78
2023-12-28T01:10:18.503Z,3.00
2023-12-28T01:12:47.889Z,3.58
2023-12-28T01:15:16.304Z,3.58
2023-12-28T01:17:44.259Z,3.20
2023-12-28T01:20:12.736Z,3.03
2023-12-28T01:22:40.589Z,3.17
2023-12-28T01:25:09.207Z,2.92
2023-12-28T01:27:37.066Z,3.40
2023-12-28T01:30:08.571Z,3.10
2023-12-28T01:32:36.761Z,2.53
2023-12-28T01:35:06.264Z,3.05
2023-12-28T01:37:35.668Z,3.20
2023-12-28T01:40:03.871Z,3.40
2023-12-28T01:42:32.840Z,2.88
2023-12-28T01:45:01.098Z,2.97
2023-12-28T01:47:31.196Z,3.30
2023-12-28T01:49:59.658Z,2.97
2023-12-28T01:52:28.739Z,3.08
2023-12-28T01:54:57.042Z,2.85
2023-12-28T01:57:25.298Z,3.30
2023-12-28T01:59:53.715Z,2.63
2023-12-28T02:02:20.591Z,3.30
2023-12-28T02:04:49.883Z,3.10
2023-12-28T02:07:18.212Z,3.20
2023-12-28T02:09:46.254Z,3.47
2023-12-28T02:12:14.252Z,3.10
2023-12-28T02:14:42.196Z,3.28
2023-12-28T02:17:17.817Z,3.38
2023-12-28T02:19:52.098Z,3.10
2023-12-28T02:22:20.138Z,4.03
2023-12-28T02:25:12.923Z,3.60
2023-12-28T02:27:42.771Z,3.47
2023-12-28T02:30:12.614Z,3.78
2023-12-28T02:32:54.474Z,3.63
2023-12-28T02:35:26.462Z,3.83
2023-12-28T02:37:57.416Z,3.75
2023-12-28T02:40:28.340Z,4.03
2023-12-28T02:42:56.335Z,3.70
2023-12-28T02:45:24.221Z,3.45
2023-12-28T02:47:52.582Z,3.90
2023-12-28T02:50:20.667Z,4.25
2023-12-28T02:52:48.454Z,4.15
2023-12-28T02:55:16.829Z,4.35
2023-12-28T02:57:47.048Z,4.30
2023-12-28T03:00:15.879Z,3.88
2023-12-28T03:02:43.810Z,4.40
2023-12-28T03:05:11.916Z,4.55
2023-12-28T03:07:41.044Z,4.22
2023-12-28T03:10:12.110Z,4.30
2023-12-28T03:12:41.644Z,4.10
2023-12-28T03:15:11.183Z,3.97
2023-12-28T03:17:39.084Z,3.90
2023-12-28T03:20:08.686Z,4.00
2023-12-28T03:22:36.701Z,3.85
2023-12-28T03:25:05.458Z,4.15
2023-12-28T03:27:33.383Z,3.83
2023-12-28T03:30:01.234Z,3.70
2023-12-28T03:32:30.412Z,4.05
2023-12-28T03:34:58.227Z,4.20
2023-12-28T03:37:26.380Z,4.03
2023-12-28T03:39:54.263Z,4.05
2023-12-28T03:42:23.454Z,4.30
2023-12-28T03:44:51.298Z,3.90
2023-12-28T03:47:19.062Z,4.10
2023-12-28T03:49:48.336Z,3.95
2023-12-28T03:52:16.197Z,3.70
2023-12-28T03:54:44.058Z,4.00
2023-12-28T03:57:11.900Z,4.13
2023-12-28T03:59:41.225Z,3.78
2023-12-28T04:02:09.109Z,3.70
2023-12-28T04:04:36.924Z,3.80
2023-12-28T04:07:08.522Z,3.88
2023-12-28T04:09:36.435Z,3.60
2023-12-28T04:12:04.476Z,4.00
2023-12-28T04:14:32.259Z,3.88
2023-12-28T04:17:00.112Z,3.78
2023-12-28T04:19:28.056Z,3.67
2023-12-28T04:21:57.070Z,3.90
2023-12-28T04:24:26.260Z,3.97
2023-12-28T04:26:54.102Z,3.70
2023-12-28T04:29:22.472Z,3.80
2023-12-28T04:31:50.259Z,4.10
2023-12-28T04:34:18.152Z,3.50
2023-12-28T04:36:47.766Z,3.55
2023-12-28T04:39:15.793Z,3.40
2023-12-28T04:41:45.044Z,3.28
2023-12-28T04:44:12.941Z,3.65
2023-12-28T04:46:42.412Z,3.55
2023-12-28T04:49:12.511Z,3.47
2023-12-28T04:51:44.644Z,3.30
2023-12-28T04:54:12.496Z,3.42
2023-12-28T04:56:40.295Z,3.50
2023-12-28T04:59:09.500Z,4.03
2023-12-28T05:01:43.144Z,3.75
2023-12-28T05:04:14.453Z,3.72
2023-12-28T05:06:44.862Z,3.40
2023-12-28T05:09:14.208Z,3.75
2023-12-28T05:11:42.019Z,3.22
2023-12-28T05:14:11.353Z,3.38
2023-12-28T05:16:39.311Z,3.60
2023-12-28T05:19:07.299Z,3.10
2023-12-28T05:21:35.200Z,3.25
2023-12-28T05:24:03.044Z,3.10
2023-12-28T05:26:30.838Z,3.58
2023-12-28T05:28:58.683Z,3.40
2023-12-28T05:31:28.038Z,3.30
2023-12-28T05:33:55.998Z,3.35
2023-12-28T05:36:23.995Z,3.50
2023-12-28T05:38:51.796Z,3.50
2023-12-28T05:41:19.618Z,3.10
2023-12-28T05:43:47.384Z,3.30
2023-12-28T05:46:15.532Z,3.60
2023-12-28T05:48:44.791Z,3.35
2023-12-28T05:51:12.643Z,3.00
2023-12-28T05:53:40.497Z,3.00
2023-12-28T05:56:08.582Z,3.08
2023-12-28T05:58:37.617Z,3.45
2023-12-28T06:01:06.093Z,3.15
2023-12-28T06:03:34.122Z,3.63
2023-12-28T06:06:03.530Z,3.38
2023-12-28T06:08:31.334Z,3.65
2023-12-28T06:10:59.160Z,3.40
2023-12-28T06:13:27.199Z,3.53
2023-12-28T06:15:55.248Z,3.15
2023-12-28T06:18:23.273Z,3.33
2023-12-28T06:20:51.217Z,3.10
2023-12-28T06:23:20.547Z,2.92
2023-12-28T06:25:48.385Z,3.50
2023-12-28T06:28:16.228Z,2.67
2023-12-28T06:30:44.145Z,3.45
2023-12-28T06:33:12.110Z,3.10
2023-12-28T06:35:39.941Z,3.10
2023-12-28T06:38:07.861Z,2.95
2023-12-28T06:40:37.073Z,3.13
2023-12-28T06:43:05.270Z,2.90
2023-12-28T06:45:33.099Z,2.75
2023-12-28T06:48:01.143Z,2.85
2023-12-28T06:50:29.313Z,3.15
2023-12-28T06:52:57.155Z,3.30
2023-12-28T06:55:24.979Z,3.80
2023-12-28T06:57:54.185Z,3.20
2023-12-28T07:00:22.206Z,3.10
2023-12-28T07:02:50.055Z,3.28
2023-12-28T07:05:17.963Z,3.22
2023-12-28T07:07:45.768Z,3.58
2023-12-28T07:10:13.661Z,4.10
2023-12-28T07:12:41.495Z,3.72
2023-12-28T07:15:14.610Z,3.00
2023-12-28T07:17:42.696Z,2.92
2023-12-28T07:20:11.771Z,3.03
2023-12-28T07:22:40.306Z,3.03
2023-12-28T07:25:08.677Z,3.00
2023-12-28T07:27:37.747Z,3.08
2023-12-28T07:30:08.358Z,3.00
2023-12-28T07:32:38.655Z,3.28
2023-12-28T07:35:07.585Z,2.90
2023-12-28T07:37:35.756Z,2.88
2023-12-28T07:40:04.341Z,2.92
2023-12-28T07:42:32.594Z,2.88
2023-12-28T07:45:00.478Z,2.85
2023-12-28T07:47:29.109Z,2.60
2023-12-28T07:49:58.638Z,2.90
2023-12-28T07:52:26.414Z,2.30
2023-12-28T07:54:54.321Z,2.80
2023-12-28T07:57:22.767Z,2.85
2023-12-28T07:59:50.600Z,2.55
2023-12-28T08:02:21.271Z,2.78
2023-12-28T08:04:49.960Z,2.47
2023-12-28T08:07:19.310Z,3.28
2023-12-28T08:09:47.105Z,2.75
2023-12-28T08:12:15.014Z,3.75
2023-12-28T08:14:42.855Z,2.90
2023-12-28T08:17:10.976Z,2.70
2023-12-28T08:19:38.909Z,2.38
2023-12-28T08:22:06.933Z,3.25
2023-12-28T08:24:37.298Z,2.72
2023-12-28T08:27:04.864Z,2.70
2023-12-28T08:29:32.767Z,3.10
2023-12-28T08:32:01.539Z,3.03
2023-12-28T08:34:29.834Z,3.13
2023-12-28T08:36:58.943Z,2.83
2023-12-28T08:39:26.841Z,2.45
2023-12-28T08:41:56.072Z,2.70
2023-12-28T08:44:23.912Z,2.65
2023-12-28T08:46:51.672Z,2.90
2023-12-28T08:49:19.918Z,2.58
2023-12-28T08:51:47.981Z,2.95
2023-12-28T08:54:16.126Z,2.75
2023-12-28T08:56:44.836Z,2.90
2023-12-28T08:59:14.061Z,2.58
2023-12-28T09:01:41.915Z,2.60
2023-12-28T09:04:09.861Z,2.88
2023-12-28T09:06:37.826Z,2.53
2023-12-28T09:09:06.902Z,2.75
2023-12-28T09:11:34.808Z,3.03
2023-12-28T09:14:02.691Z,2.75
2023-12-28T09:16:31.910Z,2.38
2023-12-28T09:19:00.025Z,2.55
2023-12-28T09:21:28.731Z,2.80
2023-12-28T09:23:56.582Z,2.90
2023-12-28T09:26:24.378Z,2.60
2023-12-28T09:28:52.235Z,2.63
2023-12-28T09:31:20.114Z,2.45
2023-12-28T09:33:49.484Z,2.38
2023-12-28T09:36:17.929Z,2.97
2023-12-28T09:38:46.550Z,2.65
2023-12-28T09:41:16.300Z,2.90
2023-12-28T09:44:00.560Z,2.38
2023-12-28T09:46:28.604Z,2.30
2023-12-28T09:48:58.414Z,2.40
2023-12-28T09:51:27.219Z,2.38
2023-12-28T09:53:55.733Z,2.53
2023-12-28T09:56:25.421Z,2.40
2023-12-28T09:58:55.039Z,2.40
2023-12-28T10:01:22.934Z,2.30
2023-12-28T10:03:51.486Z,2.30
2023-12-28T10:06:22.608Z,3.13
2023-12-28T10:08:51.731Z,2.00
2023-12-28T10:11:20.701Z,2.60
2023-12-28T10:13:50.734Z,2.30
2023-12-28T10:16:18.966Z,2.28
2023-12-28T10:18:47.476Z,2.17
2023-12-28T10:21:15.510Z,2.67
2023-12-28T10:23:44.864Z,3.10
2023-12-28T10:26:13.934Z,2.95
2023-12-28T10:28:43.698Z,2.50
2023-12-28T10:31:11.995Z,2.83
2023-12-28T10:33:40.609Z,2.67
2023-12-28T10:36:11.204Z,3.03
2023-12-28T10:38:40.397Z,3.13
2023-12-28T10:41:10.821Z,2.80
2023-12-28T10:43:47.424Z,2.80
2023-12-28T10:46:32.898Z,2.63
2023-12-28T10:49:07.469Z,3.15
2023-12-28T10:51:38.573Z,2.42
2023-12-28T10:54:16.882Z,2.33
2023-12-28T10:56:48.759Z,2.60
2023-12-28T10:59:26.621Z,2.63
2023-12-28T11:01:58.600Z,2.45
2023-12-28T11:04:31.668Z,2.38
2023-12-28T11:07:03.932Z,2.42
2023-12-28T11:09:33.404Z,3.45
2023-12-28T11:12:05.762Z,2.30
2023-12-28T11:14:34.261Z,3.25
2023-12-28T11:17:04.026Z,2.97
2023-12-28T11:19:33.176Z,2.95
2023-12-28T11:22:01.577Z,2.53
2023-12-28T11:24:47.605Z,2.53
2023-12-28T11:27:27.411Z,2.42
2023-12-28T11:29:55.275Z,2.60
2023-12-28T11:32:23.370Z,2.92
2023-12-28T11:34:59.547Z,2.72
2023-12-28T11:37:30.480Z,2.60
2023-12-28T11:40:01.040Z,3.05
2023-12-28T11:42:30.277Z,2.55
2023-12-28T11:45:04.965Z,3.05
2023-12-28T11:47:35.747Z,2.53
2023-12-28T11:50:09.525Z,2.67
2023-12-28T11:52:37.605Z,2.85
2023-12-28T11:55:06.612Z,2.78
2023-12-28T11:57:35.849Z,3.33
2023-12-28T12:00:06.283Z,2.75
2023-12-28T12:02:35.424Z,2.88
2023-12-28T12:05:04.181Z,3.00
2023-12-28T12:07:32.403Z,2.92
2023-12-28T12:10:01.374Z,3.08
2023-12-28T12:12:32.159Z,2.72
2023-12-28T12:15:02.812Z,3.15
2023-12-28T12:17:31.971Z,2.80
2023-12-28T12:19:59.783Z,3.05
2023-12-28T12:22:29.946Z,2.97
2023-12-28T12:25:00.212Z,3.25
2023-12-28T12:27:28.265Z,2.92
2023-12-28T12:29:56.171Z,3.10
2023-12-28T12:32:25.765Z,3.20
2023-12-28T12:34:54.987Z,3.83
2023-12-28T12:37:23.590Z,2.63
2023-12-28T12:39:51.719Z,3.10
2023-12-28T12:42:20.517Z,3.63
2023-12-28T12:44:48.480Z,3.25
2023-12-28T12:47:16.414Z,3.30
2023-12-28T12:49:45.711Z,3.30
2023-12-28T12:52:14.537Z,3.72
2023-12-28T12:54:42.567Z,2.72
2023-12-28T12:57:10.757Z,2.80
2023-12-28T12:59:38.565Z,3.13
2023-12-28T13:02:09.702Z,3.35
2023-12-28T13:04:39.983Z,2.78
2023-12-28T13:07:10.206Z,2.63
2023-12-28T13:09:38.146Z,2.75
2023-12-28T13:12:06.627Z,3.05
2023-12-28T13:14:34.450Z,4.00
2023-12-28T13:17:02.246Z,2.72
2023-12-28T13:19:30.199Z,2.97
2023-12-28T13:21:58.058Z,3.83
2023-12-28T13:24:27.270Z,2.83
2023-12-28T13:26:55.111Z,2.80
2023-12-28T13:29:22.945Z,3.33
2023-12-28T13:31:51.574Z,3.22
2023-12-28T13:34:20.382Z,3.20
2023-12-28T13:36:49.096Z,3.20
2023-12-28T13:39:18.589Z,4.07
2023-12-28T13:41:47.821Z,3.25
2023-12-28T13:44:15.639Z,2.80
2023-12-28T13:46:44.472Z,3.20
2023-12-28T13:49:14.801Z,3.05
2023-12-28T13:51:42.731Z,3.10
2023-12-28T13:54:10.519Z,2.85
2023-12-28T13:56:38.994Z,2.97
2023-12-28T13:59:08.846Z,2.83
2023-12-28T14:01:36.700Z,2.45
2023-12-28T14:04:05.028Z,2.63
2023-12-28T14:06:33.184Z,2.97
2023-12-28T14:09:01.076Z,3.53
2023-12-28T14:11:29.311Z,3.42
2023-12-28T14:13:57.189Z,2.85
2023-12-28T14:16:26.461Z,3.38
2023-12-28T14:18:54.433Z,3.55
2023-12-28T14:21:22.903Z,3.15
2023-12-28T14:23:52.785Z,3.13
2023-12-28T14:26:23.703Z,3.35
2023-12-28T14:28:52.197Z,3.72
2023-12-28T14:31:20.683Z,3.92
2023-12-28T14:33:50.882Z,3.45
2023-12-28T14:36:29.725Z,3.42
2023-12-28T14:38:57.639Z,3.13
2023-12-28T14:41:25.474Z,2.88
2023-12-28T14:43:53.334Z,2.80
2023-12-28T14:46:21.258Z,2.67
2023-12-28T14:48:50.539Z,2.50
2023-12-28T14:51:18.574Z,3.17
2023-12-28T14:53:46.653Z,4.00
2023-12-28T14:56:14.495Z,3.00
2023-12-28T14:58:47.674Z,3.05
2023-12-28T15:01:16.673Z,2.97
2023-12-28T15:03:45.012Z,2.97
2023-12-28T15:06:14.551Z,2.80
2023-12-28T15:08:42.421Z,3.15
2023-12-28T15:11:11.915Z,3.33
2023-12-28T15:13:40.486Z,3.60
2023-12-28T15:16:10.430Z,3.13
2023-12-28T15:18:41.043Z,3.53
2023-12-28T15:21:10.668Z,2.72
2023-12-28T15:23:40.464Z,2.92
2023-12-28T15:26:08.631Z,3.00
2023-12-28T15:28:36.464Z,3.22
2023-12-28T15:31:04.710Z,3.33
2023-12-28T15:33:32.953Z,3.35
2023-12-28T15:36:00.882Z,3.05
2023-12-28T15:38:29.937Z,3.35
2023-12-28T15:40:59.125Z,3.03
2023-12-28T15:43:26.956Z,3.33
2023-12-28T15:45:54.947Z,2.83
2023-12-28T15:48:23.019Z,3.50
2023-12-28T15:50:50.870Z,2.95
2023-12-28T15:53:18.651Z,3.53
2023-12-28T15:55:47.604Z,3.95
2023-12-28T15:58:16.984Z,3.38
2023-12-28T16:00:45.259Z,3.00
2023-12-28T16:03:13.163Z,3.13
2023-12-28T16:05:42.334Z,2.72
2023-12-28T16:08:10.465Z,3.13
2023-12-28T16:10:38.415Z,3.20
2023-12-28T16:13:06.228Z,2.83
2023-12-28T16:15:39.029Z,3.25
2023-12-28T16:18:07.980Z,3.28
2023-12-28T16:20:37.041Z,2.90
2023-12-28T16:23:05.628Z,2.80
2023-12-28T16:25:34.436Z,3.45
2023-12-28T16:28:02.666Z,3.58
2023-12-28T16:30:30.867Z,2.83
2023-12-28T16:33:00.106Z,3.40
2023-12-28T16:35:28.029Z,3.22
2023-12-28T16:37:55.816Z,3.35
2023-12-28T16:40:23.695Z,3.50
2023-12-28T16:42:51.877Z,3.22
2023-12-28T16:45:22.087Z,3.05
2023-12-28T16:47:51.854Z,3.45
2023-12-28T16:50:25.097Z,3.10
2023-12-28T16:52:55.782Z,3.13
2023-12-28T16:55:23.833Z,3.58
2023-12-28T16:57:51.647Z,2.92
2023-12-28T17:00:20.042Z,3.35
2023-12-28T17:02:47.993Z,3.38
2023-12-28T17:05:17.858Z,3.42
2023-12-28T17:07:47.305Z,3.03
2023-12-28T17:10:16.132Z,4.38
2023-12-28T17:12:44.298Z,3.35
2023-12-28T17:15:13.602Z,3.55
2023-12-28T17:17:43.846Z,3.40
2023-12-28T17:20:14.050Z,3.35
2023-12-28T17:22:46.085Z,3.53
2023-12-28T17:25:26.032Z,3.42
2023-12-28T17:27:56.679Z,3.53
2023-12-28T17:30:27.494Z,3.08
2023-12-28T17:32:59.304Z,3.42
2023-12-28T17:35:28.320Z,3.20
2023-12-28T17:37:58.181Z,3.80
2023-12-28T17:40:28.375Z,3.47
2023-12-28T17:43:00.339Z,4.00
2023-12-28T17:45:35.339Z,3.30
2023-12-28T17:48:07.906Z,3.50
2023-12-28T17:50:39.362Z,3.17
2023-12-28T17:53:08.885Z,3.22
2023-12-28T17:55:38.090Z,3.40
2023-12-28T17:58:06.211Z,3.30
2023-12-28T18:00:34.752Z,2.85
2023-12-28T18:03:02.993Z,3.25
2023-12-28T18:05:30.850Z,3.38
2023-12-28T18:07:59.049Z,3.20
2023-12-28T18:10:28.332Z,3.60
2023-12-28T18:12:57.631Z,3.33
2023-12-28T18:15:25.492Z,3.05
2023-12-28T18:17:54.085Z,3.38
2023-12-28T18:20:21.855Z,3.47
2023-12-28T18:22:49.702Z,3.75
2023-12-28T18:25:17.772Z,3.30
2023-12-28T18:27:45.627Z,3.58
2023-12-28T18:30:15.406Z,3.45
2023-12-28T18:32:43.308Z,3.50
2023-12-28T18:35:12.045Z,3.42
2023-12-28T18:37:42.120Z,3.47
2023-12-28T18:40:10.930Z,2.88
2023-12-28T18:42:39.136Z,2.85
2023-12-28T18:45:08.207Z,3.17
2023-12-28T18:47:37.720Z,2.97
2023-12-28T18:50:06.732Z,3.78
2023-12-28T18:52:34.604Z,2.95
2023-12-28T18:55:03.442Z,3.30
2023-12-28T18:57:31.415Z,3.33
2023-12-28T18:59:59.255Z,2.63
2023-12-28T19:02:29.037Z,3.28
2023-12-28T19:04:58.247Z,3.05
2023-12-28T19:07:26.154Z,3.17
2023-12-28T19:09:54.116Z,3.53
2023-12-28T19:12:21.993Z,3.35
2023-12-28T19:14:49.887Z,3.65
2023-12-28T19:17:17.753Z,3.05
2023-12-28T19:19:45.609Z,2.97
2023-12-28T19:22:15.392Z,3.10
2023-12-28T19:24:43.270Z,2.60
2023-12-28T19:27:11.083Z,3.05
2023-12-28T19:29:38.940Z,3.08
2023-12-28T19:32:07.694Z,3.15
2023-12-28T19:34:36.013Z,3.33
2023-12-28T19:37:04.046Z,2.97
2023-12-28T19:39:33.217Z,3.10
2023-12-28T19:42:01.028Z,2.78
2023-12-28T19:44:28.919Z,3.35
2023-12-28T19:46:56.729Z,3.42
2023-12-28T19:49:28.122Z,3.42
2023-12-28T19:51:56.735Z,3.53
2023-12-28T19:54:25.727Z,2.65
2023-12-28T19:56:56.177Z,2.88
2023-12-28T19:59:24.162Z,3.10
2023-12-28T20:01:54.097Z,3.13
2023-12-28T20:04:22.103Z,3.25
2023-12-28T20:06:50.790Z,2.55
2023-12-28T20:09:18.773Z,2.83
2023-12-28T20:11:48.916Z,3.03
2023-12-28T20:14:18.528Z,3.00
2023-12-28T20:16:50.434Z,3.22
2023-12-28T20:19:19.280Z,2.97
2023-12-28T20:21:48.270Z,3.30
2023-12-28T20:24:16.129Z,3.22
2023-12-28T20:26:44.781Z,2.30
2023-12-28T20:29:12.605Z,2.95
2023-12-28T20:31:41.780Z,2.70
2023-12-28T20:34:09.873Z,2.67
2023-12-28T20:36:38.151Z,2.72
2023-12-28T20:39:07.096Z,3.47
2023-12-28T20:41:35.045Z,2.97
2023-12-28T20:44:04.457Z,2.80
2023-12-28T20:46:32.874Z,2.90
2023-12-28T20:49:02.345Z,3.08
2023-12-28T20:51:30.264Z,2.83
2023-12-28T20:53:58.119Z,2.60
2023-12-28T20:56:26.328Z,3.50
2023-12-28T20:58:54.170Z,2.92
2023-12-28T21:01:22.089Z,2.72
2023-12-28T21:03:50.122Z,2.72
2023-12-28T21:06:19.327Z,2.85
2023-12-28T21:08:47.491Z,2.75
2023-12-28T21:11:15.406Z,3.55
2023-12-28T21:13:43.271Z,3.00
2023-12-28T21:16:11.624Z,2.83
2023-12-28T21:18:41.063Z,3.40
2023-12-28T21:21:11.719Z,3.10
2023-12-28T21:23:42.101Z,2.60
2023-12-28T21:26:10.124Z,2.78
2023-12-28T21:28:38.253Z,2.55
2023-12-28T21:31:07.709Z,2.75
2023-12-28T21:33:36.163Z,2.83
2023-12-28T21:36:04.960Z,2.38
2023-12-28T21:38:33.355Z,2.70
2023-12-28T21:41:02.651Z,2.70
2023-12-28T21:43:31.153Z,2.30
2023-12-28T21:45:59.133Z,3.05
2023-12-28T21:48:27.133Z,2.63
2023-12-28T21:50:55.135Z,3.67
2023-12-28T21:53:23.046Z,2.47
2023-12-28T21:55:51.810Z,2.63
2023-12-28T21:58:20.955Z,2.78
2023-12-28T22:00:48.937Z,2.90
2023-12-28T22:03:16.884Z,2.58
2023-12-28T22:05:44.884Z,3.00
2023-12-28T22:08:15.277Z,2.95
2023-12-28T22:10:43.432Z,2.55
2023-12-28T22:13:12.313Z,2.47
2023-12-28T22:15:41.535Z,2.92
2023-12-28T22:18:10.026Z,2.47
2023-12-28T22:20:37.994Z,2.78
2023-12-28T22:23:05.975Z,2.95
2023-12-28T22:25:33.827Z,2.90
2023-12-28T22:28:02.027Z,3.33
2023-12-28T22:30:32.815Z,2.67
2023-12-28T22:33:02.411Z,2.70
2023-12-28T22:35:30.363Z,3.17
2023-12-28T22:37:58.394Z,2.60
2023-12-28T22:40:26.387Z,2.35
2023-12-28T22:42:54.471Z,3.28
2023-12-28T22:45:22.464Z,3.15
2023-12-28T22:47:50.381Z,2.58
2023-12-28T22:50:19.677Z,3.38
2023-12-28T22:52:47.593Z,2.85
2023-12-28T22:55:15.843Z,2.50
2023-12-28T22:57:43.765Z,2.20
2023-12-28T23:00:21.217Z,2.28
2023-12-28T23:02:49.122Z,2.75
2023-12-28T23:05:17.213Z,3.17
2023-12-28T23:07:46.425Z,2.83
2023-12-28T23:10:14.296Z,2.95
2023-12-28T23:12:42.584Z,2.15
2023-12-28T23:15:11.858Z,2.60
2023-12-28T23:17:39.801Z,2.53
2023-12-28T23:20:09.263Z,2.85
2023-12-28T23:22:37.113Z,2.38
2023-12-28T23:25:07.639Z,2.80
2023-12-28T23:27:35.756Z,2.50
2023-12-28T23:30:03.749Z,2.97
2023-12-28T23:32:31.689Z,2.47
2023-12-28T23:35:00.265Z,3.03
2023-12-28T23:37:28.240Z,2.60
2023-12-28T23:39:56.165Z,2.50
2023-12-28T23:42:25.393Z,3.13
2023-12-28T23:44:53.946Z,2.53
2023-12-28T23:47:21.784Z,2.30
2023-12-28T23:49:49.713Z,2.63
2023-12-28T23:52:17.563Z,2.10
2023-12-28T23:54:45.460Z,2.63
2023-12-28T23:57:13.324Z,2.70
2023-12-28T23:59:42.584Z,2.58
